Time;durP1;ratioP1;P1;durP2;ratioP2;P2;SDS_P1;SDS_P2;PMS_P1;PMS_P2;Temp;Humidity;BMP_temperature;BMP_pressure;BME280_temperature;BME280_humidity;BME280_pressure;Samples;Min_cycle;Max_cycle;Signal;HPM_P1;HPM_P2
2023/03/16 00:01:42;;;;;;;6.20;4.00;;;;;;;;;;5055250;28;20178;-69
2023/03/16 00:04:08;;;;;;;8.93;3.50;;;;;;;;;;5055193;28;20277;-68
2023/03/16 00:06:35;;;;;;;5.93;3.60;;;;;;;;;;5037114;28;20221;-68
2023/03/16 00:09:01;;;;;;;8.00;4.00;;;;;;;;;;5037351;28;20194;-68
2023/03/16 00:11:27;;;;;;;7.90;3.83;;;;;;;;;;5037651;28;20183;-68
2023/03/16 00:13:53;;;;;;;6.37;3.70;;;;;;;;;;5055055;28;20553;-67
2023/03/16 00:16:19;;;;;;;6.93;3.77;;;;;;;;;;5036595;28;20304;-68
2023/03/16 00:18:45;;;;;;;5.50;3.83;;;;;;;;;;5055009;28;20217;-68
2023/03/16 00:21:13;;;;;;;8.87;3.50;;;;;;;;;;5054657;28;20178;-67
2023/03/16 00:23:39;;;;;;;9.33;3.80;;;;;;;;;;5054761;28;20171;-68
2023/03/16 00:26:09;;;;;;;8.77;4.13;;;;;;;;;;5054755;28;20198;-67
2023/03/16 00:28:35;;;;;;;7.00;3.90;;;;;;;;;;5054736;28;20179;-68
2023/03/16 00:31:05;;;;;;;8.77;4.10;;;;;;;;;;5036805;28;20644;-68
2023/03/16 00:33:34;;;;;;;8.63;5.53;;;;;;;;;;5054583;28;20182;-68
2023/03/16 00:36:06;;;;;;;9.30;5.50;;;;;;;;;;5036708;28;20256;-69
2023/03/16 00:38:34;;;;;;;12.67;6.13;;;;;;;;;;5054797;28;20171;-67
2023/03/16 00:41:02;;;;;;;8.10;4.03;;;;;;;;;;5054572;28;20546;-67
2023/03/16 00:43:29;;;;;;;8.10;4.40;;;;;;;;;;5054551;28;20174;-67
2023/03/16 00:46:05;;;;;;;7.53;4.20;;;;;;;;;;5054213;28;20194;-66
2023/03/16 00:48:33;;;;;;;6.50;4.30;;;;;;;;;;5054398;28;20181;-66
2023/03/16 00:50:59;;;;;;;6.93;3.77;;;;;;;;;;5054608;28;20175;-65
2023/03/16 00:53:25;;;;;;;6.87;3.80;;;;;;;;;;5054753;28;20625;-64
2023/03/16 00:55:52;;;;;;;9.03;4.00;;;;;;;;;;5036638;28;20209;-66
2023/03/16 00:58:18;;;;;;;7.93;4.17;;;;;;;;;;5054600;28;20166;-66
2023/03/16 01:00:45;;;;;;;6.43;3.93;;;;;;;;;;5036556;28;20224;-66
2023/03/16 01:03:11;;;;;;;5.97;4.20;;;;;;;;;;5054449;28;20182;-65
2023/03/16 01:05:41;;;;;;;9.97;4.17;;;;;;;;;;5036060;28;20205;-68
2023/03/16 01:08:07;;;;;;;7.67;3.80;;;;;;;;;;5054196;28;20175;-64
2023/03/16 01:10:34;;;;;;;6.83;3.90;;;;;;;;;;5036119;28;20670;-66
2023/03/16 01:13:02;;;;;;;9.23;4.33;;;;;;;;;;5053840;28;20698;-67
2023/03/16 01:15:28;;;;;;;7.87;4.03;;;;;;;;;;5054165;28;20205;-65
2023/03/16 01:17:54;;;;;;;5.03;3.40;;;;;;;;;;5036016;28;20220;-65
2023/03/16 01:20:20;;;;;;;6.67;4.40;;;;;;;;;;5036246;28;20213;-66
2023/03/16 01:22:46;;;;;;;9.27;3.87;;;;;;;;;;5036294;28;20179;-65
2023/03/16 01:25:13;;;;;;;6.57;4.20;;;;;;;;;;5036136;28;20687;-66
2023/03/16 01:27:39;;;;;;;5.37;3.97;;;;;;;;;;5055247;28;20175;-66
2023/03/16 01:30:05;;;;;;;7.40;3.93;;;;;;;;;;5058150;28;20178;-65
2023/03/16 01:32:32;;;;;;;9.87;5.40;;;;;;;;;;5057927;28;20209;-66
2023/03/16 01:34:58;;;;;;;7.30;5.40;;;;;;;;;;5057821;28;20620;-66
2023/03/16 01:37:24;;;;;;;10.13;4.10;;;;;;;;;;5058377;28;20206;-66
2023/03/16 01:39:50;;;;;;;7.13;4.53;;;;;;;;;;5057978;28;20232;-65
2023/03/16 01:42:17;;;;;;;18.40;5.77;;;;;;;;;;5057526;28;20182;-64
2023/03/16 01:44:50;;;;;;;8.70;4.23;;;;;;;;;;5039077;28;20229;-65
2023/03/16 01:47:17;;;;;;;5.17;3.57;;;;;;;;;;5057363;28;20178;-66
2023/03/16 01:49:46;;;;;;;8.20;3.97;;;;;;;;;;5057581;28;20552;-66
2023/03/16 01:52:15;;;;;;;7.27;3.77;;;;;;;;;;5057698;28;20171;-67
2023/03/16 01:54:44;;;;;;;6.10;3.77;;;;;;;;;;5057230;28;20194;-66
2023/03/16 01:57:21;;;;;;;6.70;4.23;;;;;;;;;;5057457;28;20202;-66
2023/03/16 02:00:17;;;;;;;3.80;3.40;;;;;;;;;;5039566;28;20166;-65
2023/03/16 02:02:45;;;;;;;8.50;3.50;;;;;;;;;;5039336;28;20171;-65
2023/03/16 02:05:13;;;;;;;4.57;3.60;;;;;;;;;;5057520;28;20225;-66
2023/03/16 02:07:50;;;;;;;4.20;3.43;;;;;;;;;;5057366;28;20187;-66
2023/03/16 02:10:17;;;;;;;6.07;3.50;;;;;;;;;;5039678;28;20261;-66
2023/03/16 02:12:43;;;;;;;8.73;3.43;;;;;;;;;;5056798;28;20270;-66
2023/03/16 02:15:10;;;;;;;5.10;3.53;;;;;;;;;;5057354;28;20206;-65
2023/03/16 02:17:37;;;;;;;5.97;3.37;;;;;;;;;;5039117;28;20206;-66
2023/03/16 02:20:22;;;;;;;5.63;3.53;;;;;;;;;;5057615;28;20186;-65
2023/03/16 02:22:52;;;;;;;6.33;3.13;;;;;;;;;;5056964;28;20201;-65
2023/03/16 02:25:20;;;;;;;7.50;3.50;;;;;;;;;;5056866;28;20604;-66
2023/03/16 02:27:52;;;;;;;8.20;3.10;;;;;;;;;;5056761;28;20644;-65
2023/03/16 02:30:18;;;;;;;4.20;3.00;;;;;;;;;;5057017;28;20205;-66
2023/03/16 02:32:46;;;;;;;5.87;3.67;;;;;;;;;;5056561;28;20206;-64
2023/03/16 02:35:12;;;;;;;4.77;3.07;;;;;;;;;;5056629;28;20679;-65
2023/03/16 02:37:39;;;;;;;4.50;3.40;;;;;;;;;;5057121;28;20599;-65
2023/03/16 02:40:22;;;;;;;5.73;3.27;;;;;;;;;;5037583;28;20645;-65
2023/03/16 02:42:53;;;;;;;4.33;3.20;;;;;;;;;;5038690;28;20183;-66
2023/03/16 02:45:20;;;;;;;5.00;3.30;;;;;;;;;;5056450;28;20614;-65
2023/03/16 02:47:47;;;;;;;7.00;3.40;;;;;;;;;;5056643;28;20661;-67
2023/03/16 02:50:13;;;;;;;6.10;3.57;;;;;;;;;;5038871;28;20591;-66
2023/03/16 02:52:40;;;;;;;5.57;3.20;;;;;;;;;;5056823;28;20182;-66
2023/03/16 02:55:06;;;;;;;4.90;3.23;;;;;;;;;;5038498;28;20198;-66
2023/03/16 02:57:32;;;;;;;5.47;3.27;;;;;;;;;;5038389;28;20675;-65
2023/03/16 02:59:58;;;;;;;7.30;3.17;;;;;;;;;;5056723;28;20265;-66
2023/03/16 03:02:24;;;;;;;5.10;3.00;;;;;;;;;;5038555;28;20183;-65
2023/03/16 03:04:53;;;;;;;6.90;3.17;;;;;;;;;;5055994;28;20209;-62
2023/03/16 03:07:19;;;;;;;6.30;3.20;;;;;;;;;;5056338;28;20159;-65
2023/03/16 03:09:45;;;;;;;3.20;2.90;;;;;;;;;;5056121;28;20181;-67
2023/03/16 03:12:11;;;;;;;5.57;3.57;;;;;;;;;;5056200;28;20266;-65
2023/03/16 03:14:37;;;;;;;5.90;3.40;;;;;;;;;;5056080;28;20181;-65
2023/03/16 03:17:07;;;;;;;6.20;3.30;;;;;;;;;;5055750;28;20695;-66
2023/03/16 03:19:34;;;;;;;6.27;3.30;;;;;;;;;;5056303;28;20557;-65
2023/03/16 03:22:03;;;;;;;4.30;3.00;;;;;;;;;;5056133;28;20179;-65
2023/03/16 03:24:29;;;;;;;4.53;3.10;;;;;;;;;;5056008;28;20167;-64
2023/03/16 03:26:55;;;;;;;5.20;3.20;;;;;;;;;;5055548;28;20652;-65
2023/03/16 03:29:21;;;;;;;4.77;3.50;;;;;;;;;;5069985;22;20257;-69
2023/03/16 03:31:47;;;;;;;6.90;3.43;;;;;;;;;;5070789;28;20178;-69
2023/03/16 03:34:13;;;;;;;5.03;3.00;;;;;;;;;;5056111;28;20178;-70
2023/03/16 03:36:40;;;;;;;5.67;3.00;;;;;;;;;;5070605;28;20206;-70
2023/03/16 03:39:06;;;;;;;6.47;2.70;;;;;;;;;;5070665;28;20195;-70
2023/03/16 03:41:32;;;;;;;4.40;3.20;;;;;;;;;;5070527;28;20178;-70
2023/03/16 03:43:59;;;;;;;5.20;2.67;;;;;;;;;;5055604;28;20257;-70
2023/03/16 03:46:26;;;;;;;7.40;3.00;;;;;;;;;;5070832;28;20182;-70
2023/03/16 03:48:52;;;;;;;4.33;2.93;;;;;;;;;;5055436;28;20194;-71
2023/03/16 03:51:18;;;;;;;4.07;3.10;;;;;;;;;;5070126;28;20189;-70
2023/03/16 03:53:44;;;;;;;5.03;2.93;;;;;;;;;;5070302;28;20182;-70
2023/03/16 03:56:10;;;;;;;4.43;2.97;;;;;;;;;;5055022;28;20178;-71
2023/03/16 03:58:36;;;;;;;5.20;3.20;;;;;;;;;;5070485;28;20195;-70
2023/03/16 04:01:02;;;;;;;4.87;3.00;;;;;;;;;;5070270;28;20174;-70
2023/03/16 04:03:28;;;;;;;4.03;2.80;;;;;;;;;;5070111;28;20766;-70
2023/03/16 04:05:55;;;;;;;5.37;2.93;;;;;;;;;;5070108;28;20178;-71
2023/03/16 04:08:21;;;;;;;5.47;2.90;;;;;;;;;;5070277;28;20658;-70
2023/03/16 04:10:47;;;;;;;4.90;3.20;;;;;;;;;;5055332;28;20213;-70
2023/03/16 04:13:13;;;;;;;3.93;3.00;;;;;;;;;;5070159;28;20206;-70
2023/03/16 04:15:39;;;;;;;7.40;3.33;;;;;;;;;;5054701;28;20178;-70
2023/03/16 04:18:05;;;;;;;4.97;3.20;;;;;;;;;;5054709;28;20209;-70
2023/03/16 04:20:31;;;;;;;6.80;3.00;;;;;;;;;;5054823;28;20346;-69
2023/03/16 04:22:57;;;;;;;5.53;2.83;;;;;;;;;;5054567;28;20640;-69
2023/03/16 04:25:25;;;;;;;5.53;3.53;;;;;;;;;;5069914;28;20618;-70
2023/03/16 04:27:51;;;;;;;3.17;2.87;;;;;;;;;;5069852;28;20212;-70
2023/03/16 04:30:17;;;;;;;4.00;2.70;;;;;;;;;;5054440;28;20659;-70
2023/03/16 04:32:43;;;;;;;5.00;3.07;;;;;;;;;;5070140;28;20179;-70
2023/03/16 04:35:10;;;;;;;5.90;2.87;;;;;;;;;;5070620;28;20271;-70
2023/03/16 04:37:36;;;;;;;4.47;3.10;;;;;;;;;;5054152;28;20202;-70
2023/03/16 04:40:14;;;;;;;4.10;3.40;;;;;;;;;;5054321;28;20181;-72
2023/03/16 04:42:40;;;;;;;6.47;3.20;;;;;;;;;;5054679;28;20175;-70
2023/03/16 04:45:07;;;;;;;6.07;3.70;;;;;;;;;;5054413;28;20174;-70
2023/03/16 04:47:33;;;;;;;6.27;3.50;;;;;;;;;;5054324;28;20178;-70
2023/03/16 04:50:02;;;;;;;7.00;3.13;;;;;;;;;;5069613;28;20193;-70
2023/03/16 04:52:29;;;;;;;4.60;3.10;;;;;;;;;;5069738;28;20655;-69
2023/03/16 04:54:55;;;;;;;3.50;3.10;;;;;;;;;;5053896;28;20171;-70
2023/03/16 04:57:22;;;;;;;8.77;3.17;;;;;;;;;;5054098;28;20570;-70
2023/03/16 04:59:47;;;;;;;6.87;3.40;;;;;;;;;;5054352;28;20170;-70
2023/03/16 05:02:13;;;;;;;3.70;3.10;;;;;;;;;;5068641;28;20236;-72
2023/03/16 05:04:39;;;;;;;4.43;3.30;;;;;;;;;;5054250;28;20178;-71
2023/03/16 05:07:05;;;;;;;5.80;3.37;;;;;;;;;;5069356;28;20190;-70
2023/03/16 05:09:31;;;;;;;9.13;3.43;;;;;;;;;;5053968;28;20202;-72
2023/03/16 05:11:58;;;;;;;4.60;3.67;;;;;;;;;;5053661;28;20186;-71
2023/03/16 05:14:24;;;;;;;5.10;3.70;;;;;;;;;;5053841;28;20210;-71
2023/03/16 05:16:51;;;;;;;6.13;3.60;;;;;;;;;;5053498;28;20351;-71
2023/03/16 05:19:17;;;;;;;7.10;3.57;;;;;;;;;;5053712;28;20657;-71
2023/03/16 05:21:44;;;;;;;5.57;3.47;;;;;;;;;;5053699;28;20297;-72
2023/03/16 05:24:11;;;;;;;5.70;3.57;;;;;;;;;;5069219;28;20182;-71
2023/03/16 05:26:37;;;;;;;7.73;3.27;;;;;;;;;;5053770;28;20202;-71
2023/03/16 05:29:03;;;;;;;5.10;3.70;;;;;;;;;;5053557;28;20214;-71
2023/03/16 05:31:31;;;;;;;5.80;3.80;;;;;;;;;;5053718;28;20186;-71
2023/03/16 05:33:58;;;;;;;4.53;3.47;;;;;;;;;;5053455;28;20178;-71
2023/03/16 05:36:24;;;;;;;8.20;4.13;;;;;;;;;;5053467;28;20198;-71
2023/03/16 05:38:50;;;;;;;5.70;3.70;;;;;;;;;;5053496;28;20204;-71
2023/03/16 05:41:17;;;;;;;11.23;3.97;;;;;;;;;;5053472;28;20274;-70
2023/03/16 05:43:43;;;;;;;5.40;4.00;;;;;;;;;;5068670;28;20540;-70
2023/03/16 05:46:09;;;;;;;4.97;3.83;;;;;;;;;;5053559;28;20178;-71
2023/03/16 05:48:36;;;;;;;5.30;3.73;;;;;;;;;;5069168;28;20233;-71
2023/03/16 05:51:04;;;;;;;6.73;4.80;;;;;;;;;;5069541;28;20269;-70
2023/03/16 05:53:30;;;;;;;6.53;4.33;;;;;;;;;;5054042;28;20175;-71
2023/03/16 05:55:56;;;;;;;10.07;4.20;;;;;;;;;;5069453;28;20332;-71
2023/03/16 05:58:22;;;;;;;5.13;3.90;;;;;;;;;;5053595;28;20206;-71
2023/03/16 06:00:49;;;;;;;7.20;4.23;;;;;;;;;;5054050;28;20240;-71
2023/03/16 06:03:15;;;;;;;5.67;4.93;;;;;;;;;;5069165;28;20193;-72
2023/03/16 06:05:41;;;;;;;7.60;4.07;;;;;;;;;;5053514;28;20554;-71
2023/03/16 06:08:08;;;;;;;6.40;4.43;;;;;;;;;;5053668;28;20222;-70
2023/03/16 06:10:34;;;;;;;5.90;4.30;;;;;;;;;;5053582;28;20175;-72
2023/03/16 06:13:00;;;;;;;21.77;5.83;;;;;;;;;;5069266;28;20230;-71
2023/03/16 06:15:29;;;;;;;6.40;4.70;;;;;;;;;;5073000;28;20204;-73
2023/03/16 06:17:55;;;;;;;5.40;4.40;;;;;;;;;;5057475;28;20292;-71
2023/03/16 06:20:21;;;;;;;6.80;4.63;;;;;;;;;;5072845;28;20214;-72
2023/03/16 06:22:47;;;;;;;7.13;4.50;;;;;;;;;;5057314;28;20632;-71
2023/03/16 06:25:14;;;;;;;7.97;5.10;;;;;;;;;;5072807;28;20174;-71
2023/03/16 06:27:40;;;;;;;9.30;5.87;;;;;;;;;;5057299;28;20228;-70
2023/03/16 06:30:07;;;;;;;4.93;4.43;;;;;;;;;;5057389;28;20170;-71
2023/03/16 06:32:34;;;;;;;7.40;5.33;;;;;;;;;;5057543;28;20260;-70
2023/03/16 06:35:01;;;;;;;8.50;4.93;;;;;;;;;;5057297;28;20182;-70
2023/03/16 06:37:28;;;;;;;6.23;5.10;;;;;;;;;;5056876;28;20281;-70
2023/03/16 06:39:54;;;;;;;12.20;5.63;;;;;;;;;;5072858;28;20612;-69
2023/03/16 06:42:19;;;;;;;8.03;5.20;;;;;;;;;;5057267;28;20198;-69
2023/03/16 06:44:46;;;;;;;7.53;5.90;;;;;;;;;;5057005;28;20702;-70
2023/03/16 06:47:12;;;;;;;7.23;5.40;;;;;;;;;;5072608;28;20179;-70
2023/03/16 06:49:38;;;;;;;6.47;5.53;;;;;;;;;;5057090;28;20202;-69
2023/03/16 06:52:04;;;;;;;8.23;5.40;;;;;;;;;;5072393;28;20603;-70
2023/03/16 06:54:33;;;;;;;9.77;5.30;;;;;;;;;;5057235;28;20190;-70
2023/03/16 06:56:59;;;;;;;8.00;5.17;;;;;;;;;;5057228;28;20545;-71
2023/03/16 06:59:25;;;;;;;6.83;5.60;;;;;;;;;;5057000;28;20216;-70
2023/03/16 07:01:51;;;;;;;6.73;4.90;;;;;;;;;;5057046;28;20178;-70
2023/03/16 07:04:16;;;;;;;7.13;5.07;;;;;;;;;;5072415;28;20659;-70
2023/03/16 07:06:42;;;;;;;9.97;4.90;;;;;;;;;;5072178;28;20187;-70
2023/03/16 07:09:08;;;;;;;8.57;5.50;;;;;;;;;;5071650;28;20293;-71
2023/03/16 07:11:34;;;;;;;6.40;5.00;;;;;;;;;;5056807;28;20182;-71
2023/03/16 07:14:00;;;;;;;6.27;4.83;;;;;;;;;;5056280;28;20179;-70
2023/03/16 07:16:27;;;;;;;6.13;5.20;;;;;;;;;;5056150;28;20199;-72
2023/03/16 07:18:53;;;;;;;7.03;4.93;;;;;;;;;;5056357;28;20191;-70
2023/03/16 07:21:19;;;;;;;6.07;5.40;;;;;;;;;;5071967;28;20239;-70
2023/03/16 07:23:45;;;;;;;6.93;5.10;;;;;;;;;;5056384;28;20663;-70
2023/03/16 07:26:12;;;;;;;9.07;5.90;;;;;;;;;;5071230;28;20559;-71
2023/03/16 07:28:39;;;;;;;7.57;6.43;;;;;;;;;;5056183;28;20233;-72
2023/03/16 07:31:05;;;;;;;8.20;5.00;;;;;;;;;;5071777;28;20174;-71
2023/03/16 07:33:32;;;;;;;9.43;5.07;;;;;;;;;;5056660;28;20247;-71
2023/03/16 07:35:58;;;;;;;6.53;5.10;;;;;;;;;;5056496;28;20707;-71
2023/03/16 07:38:24;;;;;;;6.40;4.90;;;;;;;;;;5056479;28;20237;-70
2023/03/16 07:40:53;;;;;;;6.93;5.00;;;;;;;;;;5056047;28;20178;-70
2023/03/16 07:43:19;;;;;;;5.87;4.97;;;;;;;;;;5071573;28;20193;-70
2023/03/16 07:45:50;;;;;;;5.13;4.60;;;;;;;;;;5071650;28;20198;-71
2023/03/16 07:48:16;;;;;;;6.27;4.93;;;;;;;;;;5055810;28;20230;-70
2023/03/16 07:50:42;;;;;;;9.17;4.50;;;;;;;;;;5055999;28;20240;-71
2023/03/16 07:53:09;;;;;;;5.73;4.83;;;;;;;;;;5070760;28;20748;-70
2023/03/16 07:55:38;;;;;;;6.97;4.97;;;;;;;;;;5055564;28;20170;-72
2023/03/16 07:58:05;;;;;;;5.40;4.57;;;;;;;;;;5056167;28;20206;-70
2023/03/16 08:00:31;;;;;;;7.93;5.53;;;;;;;;;;5073880;28;20236;-71
2023/03/16 08:02:57;;;;;;;7.87;5.30;;;;;;;;;;5060085;28;20174;-70
2023/03/16 08:05:23;;;;;;;7.13;5.33;;;;;;;;;;5074735;28;20178;-71
2023/03/16 08:07:50;;;;;;;8.00;6.30;;;;;;;;;;5078413;28;20698;-70
2023/03/16 08:10:16;;;;;;;8.23;5.40;;;;;;;;;;5062561;28;20202;-70
2023/03/16 08:12:42;;;;;;;7.43;5.33;;;;;;;;;;5058155;28;20185;-71
2023/03/16 08:15:09;;;;;;;6.23;5.23;;;;;;;;;;5057920;28;20254;-70
2023/03/16 08:17:35;;;;;;;12.37;5.50;;;;;;;;;;5056875;28;20285;-71
2023/03/16 08:20:05;;;;;;;8.53;5.80;;;;;;;;;;5057079;28;20174;-70
2023/03/16 08:22:31;;;;;;;7.20;5.50;;;;;;;;;;5072096;28;20170;-72
2023/03/16 08:24:57;;;;;;;6.20;5.27;;;;;;;;;;5056063;28;20214;-70
2023/03/16 08:27:24;;;;;;;6.97;5.80;;;;;;;;;;5056220;28;20178;-70
2023/03/16 08:29:53;;;;;;;9.27;5.33;;;;;;;;;;5055942;28;20660;-70
2023/03/16 08:32:19;;;;;;;6.80;5.57;;;;;;;;;;5071694;28;20190;-71
2023/03/16 08:34:46;;;;;;;7.73;6.03;;;;;;;;;;5071403;28;20665;-72
2023/03/16 08:37:12;;;;;;;6.53;5.10;;;;;;;;;;5070763;28;20210;-70
2023/03/16 08:39:42;;;;;;;7.00;5.13;;;;;;;;;;5055877;28;20194;-72
2023/03/16 08:42:08;;;;;;;7.83;5.50;;;;;;;;;;5071850;28;20183;-69
2023/03/16 08:44:35;;;;;;;8.60;5.57;;;;;;;;;;5055747;28;20177;-70
2023/03/16 08:47:01;;;;;;;8.13;5.37;;;;;;;;;;5071596;28;20674;-71
2023/03/16 08:49:27;;;;;;;4.67;4.03;;;;;;;;;;5055879;28;20190;-70
2023/03/16 08:51:53;;;;;;;7.50;5.30;;;;;;;;;;5055897;28;20225;-72
2023/03/16 08:54:19;;;;;;;8.00;6.63;;;;;;;;;;5055812;28;20610;-71
2023/03/16 08:56:45;;;;;;;7.07;5.57;;;;;;;;;;5055588;28;20672;-72
2023/03/16 08:59:12;;;;;;;10.90;6.10;;;;;;;;;;5055782;28;20211;-70
2023/03/16 09:01:39;;;;;;;10.90;5.80;;;;;;;;;;5071790;28;20641;-70
2023/03/16 09:04:05;;;;;;;6.57;5.50;;;;;;;;;;5055841;28;20262;-69
2023/03/16 09:06:31;;;;;;;12.13;6.40;;;;;;;;;;5067284;28;20205;-71
2023/03/16 09:08:57;;;;;;;6.37;5.77;;;;;;;;;;5071143;28;20202;-70
2023/03/16 09:11:27;;;;;;;7.47;6.07;;;;;;;;;;5070889;28;20182;-71
2023/03/16 09:13:53;;;;;;;9.40;6.17;;;;;;;;;;5070850;28;20163;-71
2023/03/16 09:16:19;;;;;;;7.27;5.90;;;;;;;;;;5086617;28;20178;-70
2023/03/16 09:18:46;;;;;;;10.63;6.30;;;;;;;;;;5070983;28;20197;-71
2023/03/16 09:21:12;;;;;;;11.10;6.53;;;;;;;;;;5070521;28;20167;-72
2023/03/16 09:23:40;;;;;;;8.30;5.63;;;;;;;;;;5086787;28;20174;-71
2023/03/16 09:26:06;;;;;;;8.50;5.70;;;;;;;;;;5071020;28;20194;-70
2023/03/16 09:28:33;;;;;;;8.43;5.73;;;;;;;;;;5070236;28;20273;-72
2023/03/16 09:31:00;;;;;;;6.73;5.83;;;;;;;;;;5070801;28;20205;-72
2023/03/16 09:33:27;;;;;;;6.63;5.63;;;;;;;;;;5083350;28;20179;-70
2023/03/16 09:35:56;;;;;;;9.57;5.50;;;;;;;;;;5055803;28;20222;-70
2023/03/16 09:38:24;;;;;;;8.87;6.10;;;;;;;;;;5078574;22;20222;-69
2023/03/16 09:40:55;;;;;;;7.20;5.50;;;;;;;;;;5053098;28;20158;-69
2023/03/16 09:43:24;;;;;;;8.97;5.43;;;;;;;;;;5053282;28;20163;-68
2023/03/16 09:45:50;;;;;;;7.50;5.43;;;;;;;;;;5068307;28;20174;-68
2023/03/16 09:48:17;;;;;;;8.10;5.77;;;;;;;;;;5053717;28;20251;-66
2023/03/16 09:50:43;;;;;;;7.83;5.60;;;;;;;;;;5056801;28;20288;-69
2023/03/16 09:53:28;;;;;;;11.23;6.10;;;;;;;;;;5055485;28;20187;-69
2023/03/16 09:55:57;;;;;;;8.67;5.57;;;;;;;;;;5056574;28;20201;-69
2023/03/16 09:58:23;;;;;;;5.87;5.10;;;;;;;;;;5056415;28;20226;-68
2023/03/16 10:01:09;;;;;;;5.70;5.10;;;;;;;;;;5059041;28;20183;-68
2023/03/16 10:03:38;;;;;;;12.27;5.27;;;;;;;;;;5058384;28;20171;-68
2023/03/16 10:06:05;;;;;;;6.90;5.43;;;;;;;;;;5056269;28;20178;-68
2023/03/16 10:08:31;;;;;;;7.83;4.97;;;;;;;;;;5056531;28;20772;-66
2023/03/16 10:11:03;;;;;;;7.57;4.83;;;;;;;;;;5057343;28;20198;-68
2023/03/16 10:13:29;;;;;;;7.23;5.10;;;;;;;;;;5059442;28;20175;-67
2023/03/16 10:15:56;;;;;;;6.60;4.73;;;;;;;;;;5066854;28;20181;-68
2023/03/16 10:18:25;;;;;;;5.97;4.63;;;;;;;;;;5060030;28;20229;-68
2023/03/16 10:20:52;;;;;;;6.13;4.40;;;;;;;;;;5059461;28;20175;-69
2023/03/16 10:23:21;;;;;;;5.33;4.47;;;;;;;;;;5055947;28;20175;-69
2023/03/16 10:25:48;;;;;;;5.77;4.23;;;;;;;;;;5054593;28;20213;-68
2023/03/16 10:28:22;;;;;;;5.00;4.10;;;;;;;;;;5055779;28;20221;-68
2023/03/16 10:30:49;;;;;;;12.07;4.40;;;;;;;;;;5054518;28;20265;-68
2023/03/16 10:33:18;;;;;;;5.47;4.17;;;;;;;;;;5054469;28;20196;-68
2023/03/16 10:35:47;;;;;;;8.53;4.50;;;;;;;;;;5055486;28;20170;-68
2023/03/16 10:38:31;;;;;;;7.53;4.23;;;;;;;;;;5054014;28;20233;-68
2023/03/16 10:40:58;;;;;;;7.57;4.70;;;;;;;;;;5054206;28;20206;-68
2023/03/16 10:43:24;;;;;;;8.10;4.40;;;;;;;;;;5055367;28;20253;-68
2023/03/16 10:45:51;;;;;;;8.77;4.60;;;;;;;;;;5055469;28;20213;-68
2023/03/16 10:48:18;;;;;;;6.30;4.43;;;;;;;;;;5054092;28;20236;-67
2023/03/16 10:50:48;;;;;;;5.20;4.00;;;;;;;;;;5055221;28;20182;-67
2023/03/16 10:53:35;;;;;;;8.30;4.07;;;;;;;;;;5053948;28;20185;-68
2023/03/16 10:56:02;;;;;;;5.00;3.83;;;;;;;;;;5054896;28;20593;-67
2023/03/16 10:58:32;;;;;;;8.00;4.17;;;;;;;;;;5054760;28;20218;-67
2023/03/16 11:00:59;;;;;;;7.83;4.30;;;;;;;;;;5053080;28;20232;-67
2023/03/16 11:03:37;;;;;;;6.57;4.17;;;;;;;;;;5055320;28;20224;-67
2023/03/16 11:06:05;;;;;;;8.03;4.60;;;;;;;;;;5054239;28;20220;-67
2023/03/16 11:08:33;;;;;;;8.50;4.60;;;;;;;;;;5055269;28;20202;-68
2023/03/16 11:11:01;;;;;;;5.17;3.90;;;;;;;;;;5054854;28;20166;-68
2023/03/16 11:13:34;;;;;;;5.73;4.43;;;;;;;;;;5054843;28;20648;-68
2023/03/16 11:16:20;;;;;;;7.37;3.77;;;;;;;;;;5054738;28;20261;-68
2023/03/16 11:18:56;;;;;;;6.30;4.50;;;;;;;;;;5053480;28;20674;-68
2023/03/16 11:21:25;;;;;;;17.73;4.43;;;;;;;;;;5053398;28;20178;-68
2023/03/16 11:23:54;;;;;;;7.17;4.80;;;;;;;;;;5054510;28;20171;-67
2023/03/16 11:26:24;;;;;;;6.50;4.60;;;;;;;;;;5054517;28;20171;-68
2023/03/16 11:28:55;;;;;;;9.90;4.63;;;;;;;;;;5053413;28;20198;-67
2023/03/16 11:31:39;;;;;;;14.03;4.53;;;;;;;;;;5054710;28;20165;-67
2023/03/16 11:34:13;;;;;;;4.70;3.90;;;;;;;;;;5054530;28;20261;-68
2023/03/16 11:36:54;;;;;;;4.83;4.00;;;;;;;;;;5054831;28;20193;-67
2023/03/16 11:39:30;;;;;;;7.20;4.10;;;;;;;;;;5053016;28;20214;-67
2023/03/16 11:42:08;;;;;;;4.73;3.87;;;;;;;;;;5054215;28;20154;-69
2023/03/16 11:44:43;;;;;;;4.17;3.30;;;;;;;;;;5054679;28;20167;-69
2023/03/16 11:47:09;;;;;;;4.00;3.17;;;;;;;;;;5054329;28;20173;-67
2023/03/16 11:49:49;;;;;;;4.60;3.60;;;;;;;;;;5053954;28;20194;-67
2023/03/16 11:52:32;;;;;;;7.27;3.33;;;;;;;;;;5052845;28;20178;-69
2023/03/16 11:55:03;;;;;;;9.50;4.03;;;;;;;;;;5054213;28;20175;-68
2023/03/16 11:57:58;;;;;;;5.00;3.47;;;;;;;;;;5054657;28;20244;-68
2023/03/16 12:00:44;;;;;;;3.80;3.00;;;;;;;;;;5037492;28;20244;-66
2023/03/16 12:03:35;;;;;;;10.33;3.50;;;;;;;;;;5054362;28;20166;-66
2023/03/16 12:06:10;;;;;;;7.80;3.30;;;;;;;;;;5054264;28;20167;-68
2023/03/16 12:08:42;;;;;;;3.87;3.00;;;;;;;;;;5054057;28;20260;-67
2023/03/16 12:11:11;;;;;;;5.17;2.97;;;;;;;;;;5052382;28;20174;-67
2023/03/16 12:13:41;;;;;;;4.57;3.40;;;;;;;;;;5053768;28;20528;-66
2023/03/16 12:16:14;;;;;;;3.73;2.80;;;;;;;;;;5056729;28;20196;-66
2023/03/16 12:18:46;;;;;;;9.63;3.53;;;;;;;;;;5053938;28;20209;-67
2023/03/16 12:21:18;;;;;;;3.63;3.17;;;;;;;;;;5053810;28;20570;-67
2023/03/16 12:23:52;;;;;;;5.47;3.40;;;;;;;;;;5052335;28;20655;-67
2023/03/16 12:26:23;;;;;;;4.87;3.20;;;;;;;;;;5053817;28;20170;-66
2023/03/16 12:28:50;;;;;;;4.93;3.60;;;;;;;;;;5053518;28;20195;-66
2023/03/16 12:31:23;;;;;;;7.80;3.60;;;;;;;;;;5052405;28;20179;-66
2023/03/16 12:33:49;;;;;;;5.70;3.30;;;;;;;;;;5054259;28;20205;-67
2023/03/16 12:36:18;;;;;;;6.53;3.03;;;;;;;;;;5052137;28;20187;-66
2023/03/16 12:38:53;;;;;;;7.93;3.43;;;;;;;;;;5053099;28;20229;-66
2023/03/16 12:41:26;;;;;;;5.70;3.10;;;;;;;;;;5053666;28;20528;-66
2023/03/16 12:44:06;;;;;;;4.00;3.20;;;;;;;;;;5053687;28;20329;-66
2023/03/16 12:46:38;;;;;;;6.57;3.63;;;;;;;;;;5051993;28;20177;-66
2023/03/16 12:49:05;;;;;;;4.20;3.20;;;;;;;;;;5053320;28;20574;-66
2023/03/16 12:51:35;;;;;;;6.23;3.10;;;;;;;;;;5053507;28;20175;-66
2023/03/16 12:54:01;;;;;;;4.50;3.30;;;;;;;;;;5052044;28;20178;-66
2023/03/16 12:56:31;;;;;;;3.73;3.20;;;;;;;;;;5052968;28;20201;-66
2023/03/16 12:58:59;;;;;;;6.60;3.30;;;;;;;;;;5053114;28;20195;-66
2023/03/16 13:01:29;;;;;;;4.37;2.93;;;;;;;;;;5051620;28;20178;-66
2023/03/16 13:04:00;;;;;;;5.17;2.87;;;;;;;;;;5051716;28;20587;-66
2023/03/16 13:06:30;;;;;;;6.37;3.50;;;;;;;;;;5053420;28;20186;-66
2023/03/16 13:08:58;;;;;;;5.77;2.80;;;;;;;;;;5051727;28;20214;-66
2023/03/16 13:11:25;;;;;;;7.33;3.53;;;;;;;;;;5051500;28;20188;-66
2023/03/16 13:14:00;;;;;;;4.27;3.40;;;;;;;;;;5052861;28;20192;-66
2023/03/16 13:16:27;;;;;;;4.00;3.10;;;;;;;;;;5052750;28;20173;-66
2023/03/16 13:18:53;;;;;;;7.80;3.17;;;;;;;;;;5052922;28;20210;-66
2023/03/16 13:21:21;;;;;;;8.97;3.53;;;;;;;;;;5053072;28;20567;-66
2023/03/16 13:23:53;;;;;;;4.73;3.20;;;;;;;;;;5054839;28;20171;-66
2023/03/16 13:26:39;;;;;;;9.30;2.90;;;;;;;;;;5056874;28;20178;-66
2023/03/16 13:29:17;;;;;;;4.53;2.83;;;;;;;;;;5056992;28;20252;-66
2023/03/16 13:31:43;;;;;;;3.90;2.87;;;;;;;;;;5055544;28;20170;-66
2023/03/16 13:34:12;;;;;;;4.63;2.70;;;;;;;;;;5056688;28;20232;-66
2023/03/16 13:36:38;;;;;;;7.93;4.23;;;;;;;;;;5055827;28;20202;-66
2023/03/16 13:39:27;;;;;;;8.53;4.57;;;;;;;;;;5056400;28;20523;-65
2023/03/16 13:41:54;;;;;;;6.80;3.60;;;;;;;;;;5057189;28;20689;-66
2023/03/16 13:44:22;;;;;;;3.90;2.80;;;;;;;;;;5057128;28;20636;-66
2023/03/16 13:46:49;;;;;;;8.40;3.20;;;;;;;;;;5056715;28;20175;-66
2023/03/16 13:49:15;;;;;;;6.90;3.93;;;;;;;;;;5055315;28;20202;-66
2023/03/16 13:51:42;;;;;;;6.20;3.50;;;;;;;;;;5056774;28;20177;-66
2023/03/16 13:54:21;;;;;;;5.13;3.00;;;;;;;;;;5056304;28;20260;-66
2023/03/16 13:56:47;;;;;;;6.30;3.77;;;;;;;;;;5055494;28;20202;-65
2023/03/16 13:59:14;;;;;;;4.87;2.73;;;;;;;;;;5056788;28;20225;-66
2023/03/16 14:01:43;;;;;;;7.97;2.77;;;;;;;;;;5056782;28;20174;-66
2023/03/16 14:04:12;;;;;;;4.93;2.53;;;;;;;;;;5056842;28;20179;-66
2023/03/16 14:06:40;;;;;;;6.37;2.83;;;;;;;;;;5056542;28;20264;-66
2023/03/16 14:09:08;;;;;;;4.77;2.67;;;;;;;;;;5056048;28;20205;-66
2023/03/16 14:11:34;;;;;;;3.67;2.40;;;;;;;;;;5054927;28;20652;-66
2023/03/16 14:14:00;;;;;;;5.00;2.37;;;;;;;;;;5056180;28;20591;-64
2023/03/16 14:16:28;;;;;;;5.93;2.23;;;;;;;;;;5056067;28;20178;-65
2023/03/16 14:18:54;;;;;;;7.10;2.20;;;;;;;;;;5056527;28;20577;-65
2023/03/16 14:21:25;;;;;;;4.87;2.40;;;;;;;;;;5055977;28;20170;-66
2023/03/16 14:23:52;;;;;;;6.00;2.30;;;;;;;;;;5056125;28;20608;-66
2023/03/16 14:26:19;;;;;;;4.53;2.50;;;;;;;;;;5055828;28;20171;-67
2023/03/16 14:29:01;;;;;;;7.73;2.27;;;;;;;;;;5057773;28;20217;-63
2023/03/16 14:31:31;;;;;;;3.67;2.30;;;;;;;;;;5057276;28;20198;-66
2023/03/16 14:34:02;;;;;;;5.00;2.20;;;;;;;;;;5056245;28;20167;-66
2023/03/16 14:36:34;;;;;;;6.63;2.00;;;;;;;;;;5055956;28;20641;-66
2023/03/16 14:39:09;;;;;;;6.93;2.70;;;;;;;;;;5055734;28;20214;-66
2023/03/16 14:41:37;;;;;;;7.23;2.67;;;;;;;;;;5055751;28;20237;-65
2023/03/16 14:44:04;;;;;;;3.87;2.30;;;;;;;;;;5054124;28;20183;-66
2023/03/16 14:46:40;;;;;;;5.00;2.20;;;;;;;;;;5054431;28;20223;-66
2023/03/16 14:49:09;;;;;;;6.30;2.90;;;;;;;;;;5056168;28;20250;-66
2023/03/16 14:51:36;;;;;;;5.27;2.80;;;;;;;;;;5056133;28;20190;-65